Time;durP1;ratioP1;P1;durP2;ratioP2;P2;SDS_P1;SDS_P2;PMS_P1;PMS_P2;Temp;Humidity;BMP_temperature;BMP_pressure;BME280_temperature;BME280_humidity;BME280_pressure;Samples;Min_cycle;Max_cycle;Signal;HPM_P1;HPM_P2
2023/05/16 00:01:09;;;;;;;6.13;4.25;;;10.70;99.90;;;;;;5018482;28;20313;-93
2023/05/16 00:03:38;;;;;;;6.70;4.75;;;10.60;99.90;;;;;;5018337;28;20183;-92
2023/05/16 00:06:04;;;;;;;6.82;4.07;;;10.60;99.90;;;;;;5018185;28;20630;-91
2023/05/16 00:08:40;;;;;;;8.87;4.70;;;10.60;99.90;;;;;;5018639;28;20184;-90
2023/05/16 00:11:06;;;;;;;5.60;4.43;;;10.60;99.90;;;;;;5017796;28;20202;-90
2023/05/16 00:13:31;;;;;;;5.70;4.30;;;10.50;99.90;;;;;;5018024;28;20171;-92
2023/05/16 00:16:01;;;;;;;7.80;3.80;;;10.60;99.90;;;;;;5018352;28;20258;-96
2023/05/16 00:18:27;;;;;;;7.03;3.72;;;10.60;99.90;;;;;;5017990;28;20167;-87
2023/05/16 00:20:54;;;;;;;6.90;4.00;;;10.50;99.90;;;;;;5018397;28;20167;-93
2023/05/16 00:23:20;;;;;;;5.25;3.97;;;10.60;99.90;;;;;;5018309;28;20175;-93
2023/05/16 00:25:47;;;;;;;6.10;3.75;;;10.60;99.90;;;;;;5016751;28;20219;-91
2023/05/16 00:28:16;;;;;;;5.93;3.73;;;10.60;99.90;;;;;;5018045;28;20175;-94
2023/05/16 00:30:42;;;;;;;6.93;3.95;;;10.60;99.90;;;;;;5017622;28;20637;-91
2023/05/16 00:33:07;;;;;;;5.25;3.38;;;10.60;99.90;;;;;;5018155;28;20172;-94
2023/05/16 00:35:33;;;;;;;5.55;3.33;;;10.60;99.90;;;;;;5017920;28;20186;-93
2023/05/16 00:38:06;;;;;;;4.13;3.28;;;10.60;99.90;;;;;;5017957;28;20602;-88
2023/05/16 00:40:31;;;;;;;4.53;2.90;;;10.60;99.90;;;;;;5017695;28;20598;-94
2023/05/16 00:42:57;;;;;;;5.10;3.30;;;10.70;99.90;;;;;;5017776;28;20167;-92
2023/05/16 00:45:23;;;;;;;6.03;3.00;;;10.70;99.90;;;;;;5017374;28;20183;-88
2023/05/16 00:47:50;;;;;;;4.50;3.20;;;10.60;99.90;;;;;;5017693;28;20190;-92
2023/05/16 00:50:17;;;;;;;5.15;3.10;;;10.70;99.90;;;;;;5017285;28;20203;-86
2023/05/16 00:52:43;;;;;;;10.60;3.33;;;10.70;99.90;;;;;;5470483;22;20219;-83
2023/05/16 00:55:12;;;;;;;5.28;3.03;;;10.70;99.90;;;;;;5017329;28;20633;-90
2023/05/16 00:57:38;;;;;;;4.78;2.40;;;10.70;99.90;;;;;;5016941;28;20604;-87
2023/05/16 01:00:05;;;;;;;5.57;2.90;;;10.70;99.90;;;;;;5014864;28;20215;-94
2023/05/16 01:02:33;;;;;;;6.20;2.78;;;10.70;99.90;;;;;;5016643;28;20184;-88
2023/05/16 01:04:59;;;;;;;6.30;2.60;;;10.70;99.90;;;;;;5016649;28;20175;-88
2023/05/16 01:07:25;;;;;;;5.22;2.60;;;10.70;99.90;;;;;;5016603;28;20221;-85
2023/05/16 01:09:51;;;;;;;5.43;2.47;;;10.80;99.90;;;;;;5015403;28;20786;-81
2023/05/16 01:12:27;;;;;;;4.55;2.40;;;10.80;99.90;;;;;;5016071;28;20270;-86
2023/05/16 01:15:01;;;;;;;4.80;2.45;;;10.80;99.90;;;;;;5016432;28;20216;-86
2023/05/16 01:18:00;;;;;;;4.32;2.25;;;10.90;99.90;;;;;;5016412;28;20179;-86
2023/05/16 01:20:43;;;;;;;3.65;2.30;;;11.00;99.90;;;;;;5016361;28;20186;-86
2023/05/16 01:23:12;;;;;;;5.63;2.58;;;11.00;99.90;;;;;;5019954;28;20496;-84
2023/05/16 01:26:14;;;;;;;7.05;2.65;;;10.90;99.90;;;;;;5034880;28;20175;-85
2023/05/16 01:28:42;;;;;;;9.43;2.53;;;11.00;99.90;;;;;;5035703;28;20174;-85
2023/05/16 01:31:08;;;;;;;4.93;3.22;;;10.90;99.90;;;;;;5035851;28;20198;-88
2023/05/16 01:33:34;;;;;;;3.03;2.55;;;10.90;99.90;;;;;;5034793;28;20249;-86
2023/05/16 01:36:35;;;;;;;4.07;2.10;;;10.90;99.90;;;;;;5034647;28;20254;-84
2023/05/16 01:39:15;;;;;;;3.30;2.20;;;11.00;99.90;;;;;;5035614;28;20170;-90
2023/05/16 01:42:02;;;;;;;6.43;2.20;;;11.00;99.90;;;;;;5035777;28;20166;-84
2023/05/16 01:44:41;;;;;;;3.80;1.95;;;11.00;99.90;;;;;;5035707;28;20166;-84
2023/05/16 01:47:12;;;;;;;5.55;2.30;;;10.90;99.90;;;;;;5035486;28;20170;-90
2023/05/16 01:49:50;;;;;;;3.83;1.98;;;10.90;99.90;;;;;;5035870;28;20200;-92
2023/05/16 01:52:24;;;;;;;6.90;2.17;;;10.90;99.90;;;;;;5036019;28;20170;-85
2023/05/16 01:54:53;;;;;;;4.20;1.80;;;10.90;99.90;;;;;;5016882;28;20211;-85
2023/05/16 01:57:23;;;;;;;4.88;2.10;;;10.90;99.90;;;;;;5014608;28;20190;-83
2023/05/16 01:59:49;;;;;;;3.65;1.92;;;10.80;99.90;;;;;;5015974;28;20214;-90
2023/05/16 02:02:18;;;;;;;4.00;2.15;;;10.70;99.90;;;;;;5014831;28;20614;-85
2023/05/16 02:04:43;;;;;;;3.88;2.40;;;10.70;99.90;;;;;;5016076;28;20179;-93
2023/05/16 02:07:10;;;;;;;3.55;1.98;;;10.70;99.90;;;;;;5016482;28;20242;-89
2023/05/16 02:09:36;;;;;;;3.30;2.05;;;10.70;99.90;;;;;;5015652;28;20642;-87
2023/05/16 02:12:01;;;;;;;4.00;2.00;;;10.60;99.90;;;;;;5015411;28;20178;-83
2023/05/16 02:14:28;;;;;;;3.80;2.33;;;10.60;99.90;;;;;;5015517;28;20232;-90
2023/05/16 02:16:54;;;;;;;3.72;2.35;;;10.70;99.90;;;;;;5015319;28;20218;-85
2023/05/16 02:19:20;;;;;;;6.65;2.30;;;10.60;99.90;;;;;;5014322;28;20604;-89
2023/05/16 02:21:45;;;;;;;4.00;2.08;;;10.70;99.90;;;;;;5014219;28;20186;-81
2023/05/16 02:24:11;;;;;;;3.42;2.00;;;10.60;99.90;;;;;;5013737;28;20175;-93
2023/05/16 02:26:37;;;;;;;6.45;2.45;;;10.70;99.90;;;;;;5015103;28;20222;-88
2023/05/16 02:29:03;;;;;;;4.18;2.38;;;10.70;99.90;;;;;;5015411;28;20168;-91
2023/05/16 02:31:33;;;;;;;5.25;2.47;;;10.70;99.90;;;;;;5013945;28;20226;-87
2023/05/16 02:34:00;;;;;;;3.85;2.20;;;10.70;99.90;;;;;;5014084;28;20563;-88
2023/05/16 02:36:26;;;;;;;6.22;2.22;;;10.70;99.90;;;;;;5015645;28;20180;-85
2023/05/16 02:38:52;;;;;;;6.22;2.53;;;10.80;99.90;;;;;;5015490;28;20172;-87
2023/05/16 02:41:21;;;;;;;6.30;2.50;;;10.70;99.90;;;;;;5015186;28;20211;-86
2023/05/16 02:43:47;;;;;;;4.40;2.13;;;10.70;99.90;;;;;;5015422;28;20179;-89
2023/05/16 02:46:31;;;;;;;5.78;1.67;;;10.70;99.90;;;;;;5015687;28;20174;-90
2023/05/16 02:48:57;;;;;;;4.32;2.08;;;10.70;99.90;;;;;;5015452;28;20164;-92
2023/05/16 02:51:25;;;;;;;3.65;1.80;;;10.80;99.90;;;;;;5015345;28;20222;-88
2023/05/16 02:53:51;;;;;;;2.80;1.50;;;10.80;99.90;;;;;;5014821;28;20227;-89
2023/05/16 02:56:18;;;;;;;5.82;1.70;;;10.80;99.90;;;;;;5015321;28;20262;-90
2023/05/16 02:58:47;;;;;;;6.28;1.95;;;10.80;99.90;;;;;;5015028;28;20255;-87
2023/05/16 03:01:14;;;;;;;4.05;1.80;;;10.80;99.90;;;;;;5015371;28;20250;-91
2023/05/16 03:03:40;;;;;;;4.20;1.58;;;10.80;99.90;;;;;;5014082;28;20186;-84
2023/05/16 03:06:07;;;;;;;5.75;2.00;;;10.90;99.90;;;;;;5015094;28;20176;-91
2023/05/16 03:08:34;;;;;;;4.82;1.35;;;10.80;99.90;;;;;;5015425;28;20225;-88
2023/05/16 03:11:00;;;;;;;3.20;1.60;;;10.90;99.90;;;;;;5014047;28;20257;-92
2023/05/16 03:13:26;;;;;;;5.78;1.90;;;10.90;99.90;;;;;;5015006;28;20627;-89
2023/05/16 03:15:52;;;;;;;4.25;1.38;;;10.90;99.90;;;;;;5015086;28;20171;-88
2023/05/16 03:18:18;;;;;;;5.00;1.80;;;10.90;99.90;;;;;;5015176;28;20155;-88
2023/05/16 03:20:44;;;;;;;3.03;1.75;;;10.90;99.90;;;;;;5014854;28;20242;-84
2023/05/16 03:23:09;;;;;;;4.93;1.90;;;10.90;99.90;;;;;;5015803;28;20187;-86
2023/05/16 03:25:42;;;;;;;3.42;1.48;;;10.90;99.90;;;;;;5018492;28;20546;-83
2023/05/16 03:28:07;;;;;;;4.82;1.70;;;10.90;99.90;;;;;;5018756;28;20514;-85
2023/05/16 03:30:34;;;;;;;6.30;1.98;;;10.90;99.90;;;;;;5018719;28;20214;-87
2023/05/16 03:33:00;;;;;;;2.63;1.80;;;10.90;99.90;;;;;;5034098;28;20176;-89
2023/05/16 03:35:27;;;;;;;4.63;1.73;;;10.90;99.90;;;;;;5018903;28;20262;-90
2023/05/16 03:37:53;;;;;;;5.88;1.65;;;10.90;99.90;;;;;;5017639;28;20263;-87
2023/05/16 03:40:20;;;;;;;5.72;1.98;;;10.90;99.90;;;;;;5018288;28;20172;-93
2023/05/16 03:42:46;;;;;;;5.75;2.28;;;10.90;99.90;;;;;;5017554;28;20175;-90
2023/05/16 03:45:11;;;;;;;5.20;1.80;;;10.90;99.90;;;;;;5018113;28;20187;-87
2023/05/16 03:47:37;;;;;;;3.60;1.80;;;11.00;99.90;;;;;;5017921;28;20621;-89
2023/05/16 03:50:04;;;;;;;9.48;2.20;;;11.00;99.90;;;;;;5017581;28;20642;-88
2023/05/16 03:52:30;;;;;;;8.05;2.20;;;11.00;99.90;;;;;;5016483;28;20179;-91
2023/05/16 03:54:56;;;;;;;6.25;1.75;;;10.90;99.90;;;;;;5056964;28;20189;-91
2023/05/16 03:57:25;;;;;;;4.00;1.42;;;11.00;99.90;;;;;;5056939;28;20516;-90
2023/05/16 03:59:51;;;;;;;6.38;1.95;;;11.00;99.90;;;;;;5058052;28;20172;-88
2023/05/16 04:02:17;;;;;;;6.43;1.98;;;10.90;99.90;;;;;;5057663;28;20173;-86
2023/05/16 04:04:42;;;;;;;5.05;2.05;;;10.90;99.90;;;;;;5057861;28;20223;-90
2023/05/16 04:07:13;;;;;;;5.88;2.05;;;10.90;99.90;;;;;;5056716;28;20187;-88
2023/05/16 04:09:39;;;;;;;4.95;1.90;;;10.90;99.90;;;;;;5057631;28;20324;-91
2023/05/16 04:12:05;;;;;;;6.10;1.80;;;10.90;99.90;;;;;;5057709;28;20210;-90
2023/05/16 04:14:31;;;;;;;3.90;1.50;;;10.90;99.90;;;;;;5057769;28;20228;-91
2023/05/16 04:16:57;;;;;;;5.93;1.77;;;10.90;99.90;;;;;;5057758;28;20178;-87
2023/05/16 04:19:23;;;;;;;6.80;1.95;;;10.90;99.90;;;;;;5056629;28;20178;-92
2023/05/16 04:21:49;;;;;;;4.88;1.80;;;10.90;99.90;;;;;;5057483;28;20192;-85
2023/05/16 04:24:15;;;;;;;5.80;1.90;;;10.90;99.90;;;;;;5057289;28;20684;-90
2023/05/16 04:26:47;;;;;;;5.47;2.35;;;10.90;99.90;;;;;;5057513;28;20166;-90
2023/05/16 04:29:13;;;;;;;3.88;1.80;;;10.80;99.90;;;;;;5056213;28;20182;-89
2023/05/16 04:31:39;;;;;;;4.03;1.73;;;10.80;99.90;;;;;;5057257;28;20197;-91
2023/05/16 04:34:04;;;;;;;6.07;1.65;;;10.70;99.90;;;;;;5056201;28;20175;-90
2023/05/16 04:36:37;;;;;;;5.70;1.92;;;10.70;99.90;;;;;;5057026;28;20181;-92
2023/05/16 04:39:03;;;;;;;4.20;2.10;;;10.60;99.90;;;;;;5055981;28;20220;-90
2023/05/16 04:41:29;;;;;;;6.15;2.10;;;10.60;99.90;;;;;;5057456;28;20201;-90
2023/05/16 04:43:55;;;;;;;4.25;1.60;;;10.60;99.90;;;;;;5055777;28;20276;-88
2023/05/16 04:46:20;;;;;;;5.57;1.60;;;10.50;99.90;;;;;;5057069;28;20563;-85
2023/05/16 04:48:46;;;;;;;5.70;1.60;;;10.50;99.90;;;;;;5056039;28;20193;-88
2023/05/16 04:51:12;;;;;;;6.80;1.55;;;10.60;99.90;;;;;;5056650;28;20206;-88
2023/05/16 04:53:37;;;;;;;5.07;2.03;;;10.60;99.90;;;;;;5046346;28;20227;-90
2023/05/16 04:56:04;;;;;;;7.47;1.90;;;10.70;99.90;;;;;;5036863;28;20209;-87
2023/05/16 04:58:31;;;;;;;2.78;1.33;;;10.70;99.90;;;;;;5035618;28;20178;-89
2023/05/16 05:00:57;;;;;;;4.88;1.77;;;10.80;99.90;;;;;;5036976;28;20498;-88
2023/05/16 05:03:23;;;;;;;7.90;1.83;;;10.90;99.90;;;;;;5036356;28;20170;-84
2023/05/16 05:05:48;;;;;;;5.35;1.60;;;10.90;99.90;;;;;;5036681;28;20174;-86
2023/05/16 05:08:15;;;;;;;5.13;1.48;;;11.00;99.90;;;;;;5035621;28;20553;-87
2023/05/16 05:10:41;;;;;;;4.63;1.58;;;11.00;99.90;;;;;;5036350;28;20280;-91
2023/05/16 05:13:07;;;;;;;7.72;1.77;;;11.10;99.90;;;;;;5036242;28;20194;-85
2023/05/16 05:15:32;;;;;;;7.10;1.42;;;11.00;99.90;;;;;;5035243;28;20183;-88
2023/05/16 05:17:59;;;;;;;7.47;1.80;;;11.00;99.90;;;;;;5036392;28;20175;-89
2023/05/16 05:20:25;;;;;;;5.10;1.60;;;11.00;99.90;;;;;;5035194;28;20178;-88
2023/05/16 05:22:51;;;;;;;8.35;1.70;;;11.00;99.90;;;;;;5035929;28;20233;-87
2023/05/16 05:25:17;;;;;;;7.38;1.60;;;11.10;99.90;;;;;;5035387;28;20179;-91
2023/05/16 05:27:42;;;;;;;8.75;1.92;;;11.10;99.90;;;;;;5036279;28;20170;-86
2023/05/16 05:30:08;;;;;;;4.40;1.27;;;11.10;99.90;;;;;;5035751;28;20222;-89
2023/05/16 05:32:34;;;;;;;6.40;1.80;;;11.30;99.90;;;;;;5036094;28;20175;-92
2023/05/16 05:35:00;;;;;;;8.63;1.60;;;11.30;99.90;;;;;;5035721;28;20227;-89
2023/05/16 05:37:26;;;;;;;9.77;2.00;;;11.30;99.90;;;;;;5033335;28;20609;-88
2023/05/16 05:39:51;;;;;;;5.53;1.70;;;11.30;99.90;;;;;;5034732;28;20179;-88
2023/05/16 05:42:17;;;;;;;9.85;2.28;;;11.30;99.90;;;;;;5033402;28;20211;-88
2023/05/16 05:44:43;;;;;;;11.82;1.98;;;11.30;99.90;;;;;;5016100;28;20709;-92
2023/05/16 05:47:09;;;;;;;17.15;2.22;;;11.40;99.90;;;;;;5016255;28;20179;-89
2023/05/16 05:49:35;;;;;;;14.27;2.35;;;11.50;99.90;;;;;;5034260;28;20200;-88
2023/05/16 05:52:01;;;;;;;10.45;2.60;;;11.50;99.90;;;;;;5036097;28;20174;-90
2023/05/16 05:54:27;;;;;;;7.82;1.48;;;11.60;99.90;;;;;;5035200;28;20737;-85
2023/05/16 05:57:03;;;;;;;9.45;1.90;;;11.70;99.90;;;;;;5035815;28;20183;-86
2023/05/16 05:59:29;;;;;;;9.32;1.70;;;11.70;99.90;;;;;;5036341;28;20168;-92
2023/05/16 06:01:55;;;;;;;6.45;1.65;;;11.60;99.90;;;;;;5036421;28;20253;-88
2023/05/16 06:04:21;;;;;;;10.18;2.25;;;11.60;99.90;;;;;;5035862;28;20173;-90
2023/05/16 06:06:47;;;;;;;11.20;2.17;;;11.60;99.90;;;;;;5036278;28;20174;-93
2023/05/16 06:09:14;;;;;;;7.88;1.80;;;11.50;99.90;;;;;;5035690;28;20497;-90
2023/05/16 06:11:40;;;;;;;8.25;1.88;;;11.30;99.90;;;;;;5036250;28;20628;-90
2023/05/16 06:14:06;;;;;;;8.20;2.08;;;11.10;99.90;;;;;;5035106;28;20186;-90
2023/05/16 06:16:32;;;;;;;10.40;2.28;;;11.10;99.90;;;;;;5035797;28;20170;-91
2023/05/16 06:19:14;;;;;;;12.18;2.25;;;11.00;99.90;;;;;;5034718;28;20266;-89
2023/05/16 06:21:40;;;;;;;10.88;1.73;;;10.90;99.90;;;;;;5036067;28;20163;-89
2023/05/16 06:24:06;;;;;;;10.05;1.90;;;10.90;99.90;;;;;;5035159;28;20182;-90
2023/05/16 06:26:32;;;;;;;9.50;2.20;;;10.90;99.90;;;;;;5035579;28;20189;-90
2023/05/16 06:28:59;;;;;;;12.55;2.30;;;11.00;99.90;;;;;;5035232;28;20254;-89
2023/05/16 06:31:25;;;;;;;9.68;2.17;;;11.00;99.90;;;;;;5035435;28;20207;-92
2023/05/16 06:33:51;;;;;;;9.90;1.55;;;11.00;99.90;;;;;;5035603;28;20182;-90
2023/05/16 06:36:16;;;;;;;10.95;2.03;;;11.00;99.90;;;;;;5035633;28;20245;-90
2023/05/16 06:38:42;;;;;;;8.50;1.77;;;11.10;99.90;;;;;;5034918;28;20178;-87
2023/05/16 06:41:08;;;;;;;14.90;2.38;;;11.00;99.90;;;;;;5034982;28;20205;-88
2023/05/16 06:43:34;;;;;;;10.07;2.38;;;11.00;99.90;;;;;;5039157;28;20213;-92
2023/05/16 06:46:00;;;;;;;11.55;2.30;;;10.90;99.90;;;;;;5054179;28;20178;-91
2023/05/16 06:48:32;;;;;;;14.77;2.17;;;10.80;99.90;;;;;;5054978;28;20165;-87
2023/05/16 06:50:58;;;;;;;8.50;2.22;;;10.70;99.90;;;;;;5054975;28;20220;-87
2023/05/16 06:53:25;;;;;;;10.10;2.40;;;10.60;99.90;;;;;;5053939;28;20308;-95
2023/05/16 06:55:50;;;;;;;12.40;2.75;;;10.60;99.90;;;;;;5054175;28;20189;-91
2023/05/16 06:58:17;;;;;;;10.50;2.30;;;10.50;99.90;;;;;;5052697;28;20173;-88
2023/05/16 07:00:43;;;;;;;9.73;2.20;;;10.50;99.90;;;;;;5055056;28;20162;-92
2023/05/16 07:03:09;;;;;;;9.45;2.05;;;10.50;99.90;;;;;;5053618;28;20677;-87
2023/05/16 07:05:35;;;;;;;13.48;2.13;;;10.60;99.90;;;;;;5053735;28;20178;-90
2023/05/16 07:08:02;;;;;;;12.77;2.57;;;10.70;99.90;;;;;;5054853;28;20196;-90
2023/05/16 07:10:27;;;;;;;8.15;1.88;;;10.70;99.90;;;;;;5054700;28;20388;-89
2023/05/16 07:12:54;;;;;;;10.25;2.10;;;10.80;99.90;;;;;;5054783;28;20617;-92
2023/05/16 07:15:20;;;;;;;11.75;2.08;;;10.90;99.90;;;;;;5054545;28;20170;-87
2023/05/16 07:17:46;;;;;;;8.10;1.80;;;11.00;99.90;;;;;;5054828;28;20642;-83
2023/05/16 07:20:13;;;;;;;11.00;1.90;;;11.00;99.90;;;;;;5054765;28;20166;-90
2023/05/16 07:22:39;;;;;;;9.15;2.22;;;11.10;99.90;;;;;;5054830;28;20193;-90
2023/05/16 07:25:11;;;;;;;11.27;2.35;;;11.20;99.90;;;;;;5054732;28;20169;-92
2023/05/16 07:27:40;;;;;;;11.43;2.22;;;11.20;99.90;;;;;;5054669;28;20158;-86
2023/05/16 07:30:21;;;;;;;12.35;2.72;;;11.30;99.90;;;;;;5054456;28;20194;-92
2023/05/16 07:32:48;;;;;;;10.38;2.10;;;11.30;99.90;;;;;;5054597;28;20170;-90
2023/05/16 07:35:14;;;;;;;10.57;2.23;;;11.40;99.90;;;;;;5054705;28;20251;-87
2023/05/16 07:37:41;;;;;;;11.27;2.15;;;11.40;99.90;;;;;;5053434;28;20185;-90
2023/05/16 07:40:16;;;;;;;8.75;1.85;;;11.40;99.90;;;;;;5054472;28;20166;-87
2023/05/16 07:42:43;;;;;;;11.40;2.35;;;11.40;99.90;;;;;;5053273;28;20575;-89
2023/05/16 07:45:09;;;;;;;13.60;2.00;;;11.40;99.90;;;;;;5034492;28;20633;-89
2023/05/16 07:47:35;;;;;;;12.43;2.42;;;11.30;99.90;;;;;;5034727;28;20257;-90
2023/05/16 07:50:02;;;;;;;14.07;2.05;;;11.30;99.90;;;;;;5034870;28;20198;-89
2023/05/16 07:52:27;;;;;;;10.38;2.45;;;11.30;99.90;;;;;;5034462;28;20174;-92
2023/05/16 07:54:53;;;;;;;10.75;2.20;;;11.40;99.90;;;;;;5033011;28;20568;-89
2023/05/16 07:57:19;;;;;;;10.38;1.77;;;11.50;99.90;;;;;;5034820;28;20513;-90
2023/05/16 07:59:46;;;;;;;10.20;2.17;;;11.80;99.90;;;;;;5034067;28;20178;-88
2023/05/16 08:02:11;;;;;;;12.32;2.08;;;11.90;99.90;;;;;;5034079;28;20175;-87
2023/05/16 08:04:37;;;;;;;14.30;2.03;;;12.00;99.90;;;;;;5034244;28;20571;-84
2023/05/16 08:07:03;;;;;;;6.65;1.70;;;12.20;99.90;;;;;;5034325;28;20201;-88
2023/05/16 08:09:30;;;;;;;16.40;2.15;;;12.20;99.90;;;;;;5036372;28;20198;-89
2023/05/16 08:11:55;;;;;;;8.05;1.77;;;12.10;99.90;;;;;;5038074;28;20170;-83
2023/05/16 08:14:21;;;;;;;11.30;2.30;;;12.10;99.90;;;;;;5035604;28;20174;-87
2023/05/16 08:16:47;;;;;;;6.80;1.67;;;12.20;99.90;;;;;;5036473;28;20178;-86
2023/05/16 08:19:14;;;;;;;13.13;1.95;;;12.30;99.90;;;;;;5037437;28;20225;-91
2023/05/16 08:21:39;;;;;;;8.57;1.77;;;12.30;99.90;;;;;;5037617;28;20208;-89
2023/05/16 08:24:06;;;;;;;10.18;1.88;;;12.10;99.90;;;;;;5036204;28;20555;-88
2023/05/16 08:26:32;;;;;;;11.90;1.90;;;12.00;99.90;;;;;;5037520;28;20254;-89
2023/05/16 08:28:58;;;;;;;10.63;2.80;;;12.00;99.90;;;;;;5037127;28;20558;-91
2023/05/16 08:31:24;;;;;;;9.85;1.95;;;12.10;99.90;;;;;;5037315;28;20213;-92
2023/05/16 08:33:50;;;;;;;7.75;1.63;;;12.20;99.90;;;;;;5037268;28;20170;-91
2023/05/16 08:36:18;;;;;;;7.20;1.95;;;12.50;99.90;;;;;;5036083;28;20182;-86
2023/05/16 08:38:51;;;;;;;12.18;2.47;;;12.60;99.90;;;;;;5039226;28;20197;-92
2023/05/16 08:41:17;;;;;;;12.65;1.95;;;12.90;99.90;;;;;;5056661;28;20601;-82
2023/05/16 08:43:43;;;;;;;9.38;2.00;;;12.90;99.90;;;;;;5056647;28;20177;-90
2023/05/16 08:46:09;;;;;;;12.40;1.85;;;12.80;99.90;;;;;;5057395;28;20178;-88
2023/05/16 08:48:36;;;;;;;10.88;2.42;;;12.80;99.90;;;;;;5057017;28;20189;-82
2023/05/16 08:51:05;;;;;;;6.95;2.00;;;12.80;99.90;;;;;;5057024;28;20608;-94
2023/05/16 08:53:39;;;;;;;8.48;2.00;;;12.80;99.90;;;;;;5039378;28;20245;-91
2023/05/16 08:56:07;;;;;;;10.73;2.00;;;12.80;99.90;;;;;;5056458;28;20153;-89
2023/05/16 08:58:33;;;;;;;8.60;2.20;;;12.90;99.90;;;;;;5056521;28;20484;-90
2023/05/16 09:01:05;;;;;;;7.85;1.70;;;12.90;99.90;;;;;;5056215;28;20178;-89
2023/05/16 09:03:31;;;;;;;7.47;1.92;;;13.00;99.90;;;;;;5056044;28;20609;-88
2023/05/16 09:05:57;;;;;;;7.88;1.92;;;13.20;99.90;;;;;;5056497;28;20173;-89
2023/05/16 09:08:23;;;;;;;7.60;1.83;;;13.30;99.80;;;;;;5054452;28;20232;-90
2023/05/16 09:10:51;;;;;;;6.28;1.60;;;13.20;99.80;;;;;;5035537;28;20214;-87
2023/05/16 09:13:17;;;;;;;6.00;1.40;;;13.40;99.90;;;;;;5035876;28;20194;-87
2023/05/16 09:15:44;;;;;;;7.68;1.80;;;13.40;99.00;;;;;;5036202;28;20614;-93
2023/05/16 09:18:12;;;;;;;5.97;1.38;;;13.40;97.00;;;;;;5035726;28;20162;-80
2023/05/16 09:20:45;;;;;;;6.78;1.50;;;13.50;97.00;;;;;;5035162;28;20179;-84
2023/05/16 09:23:11;;;;;;;7.25;1.33;;;13.70;96.40;;;;;;5036594;28;20163;-85
2023/05/16 09:25:39;;;;;;;8.93;1.75;;;13.70;95.80;;;;;;5035141;28;20232;-88
2023/05/16 09:28:09;;;;;;;9.63;1.65;;;13.80;96.30;;;;;;5035344;28;20174;-80
2023/05/16 09:30:47;;;;;;;9.43;1.73;;;13.70;95.60;;;;;;5036052;28;20205;-94
2023/05/16 09:33:14;;;;;;;9.02;1.60;;;13.80;96.10;;;;;;5036586;28;20597;-89
2023/05/16 09:35:40;;;;;;;7.05;1.70;;;13.90;93.70;;;;;;5036551;28;20264;-81
2023/05/16 09:38:14;;;;;;;9.30;1.63;;;13.90;95.50;;;;;;5034496;28;20174;-87
2023/05/16 09:40:40;;;;;;;10.23;1.85;;;14.10;95.40;;;;;;5035974;28;20204;-81
2023/05/16 09:43:07;;;;;;;7.65;1.75;;;14.30;96.20;;;;;;5035772;28;20167;-86
2023/05/16 09:45:35;;;;;;;7.82;1.60;;;14.40;95.70;;;;;;5036191;28;20175;-87
2023/05/16 09:48:13;;;;;;;12.57;2.03;;;14.70;95.70;;;;;;5036599;28;20171;-89
2023/05/16 09:50:41;;;;;;;10.60;2.00;;;14.80;94.40;;;;;;5035893;28;20209;-87
2023/05/16 09:53:07;;;;;;;10.00;1.75;;;14.90;96.30;;;;;;5035612;28;20202;-90
2023/05/16 09:55:33;;;;;;;8.02;1.50;;;14.90;93.40;;;;;;5035646;28;20174;-90
2023/05/16 09:57:59;;;;;;;7.03;1.38;;;14.70;94.10;;;;;;5035704;28;20167;-89
2023/05/16 10:00:33;;;;;;;7.95;1.30;;;14.20;92.70;;;;;;5034961;28;20625;-88
2023/05/16 10:03:02;;;;;;;5.38;1.33;;;14.00;92.80;;;;;;5035455;28;20159;-92
2023/05/16 10:05:28;;;;;;;11.57;1.60;;;14.10;92.80;;;;;;5034438;28;20221;-86
2023/05/16 10:07:57;;;;;;;7.55;1.20;;;14.30;92.50;;;;;;5034363;28;20636;-91
2023/05/16 10:10:24;;;;;;;7.38;1.13;;;14.40;92.00;;;;;;5052371;28;20229;-89
2023/05/16 10:12:51;;;;;;;5.93;1.65;;;14.50;93.60;;;;;;5054435;28;20595;-87
2023/05/16 10:15:18;;;;;;;7.07;1.50;;;14.70;94.40;;;;;;5055376;28;20165;-92
2023/05/16 10:17:51;;;;;;;4.50;1.17;;;14.60;92.90;;;;;;5055628;28;20247;-85
2023/05/16 10:20:19;;;;;;;7.38;1.35;;;14.20;90.70;;;;;;5055981;28;20184;-87
2023/05/16 10:22:47;;;;;;;5.15;1.48;;;14.20;91.70;;;;;;5055570;28;20158;-90
2023/05/16 10:25:37;;;;;;;4.70;1.27;;;14.40;92.40;;;;;;5055941;28;20172;-90
2023/05/16 10:28:04;;;;;;;4.53;1.00;;;14.60;91.00;;;;;;5055051;28;20170;-87
2023/05/16 10:30:33;;;;;;;3.38;0.93;;;14.90;90.80;;;;;;5054768;28;20640;-89
2023/05/16 10:33:00;;;;;;;3.83;1.10;;;15.10;89.30;;;;;;5054473;28;20245;-92
2023/05/16 10:35:26;;;;;;;4.20;1.25;;;15.20;89.10;;;;;;5055197;28;20166;-84
2023/05/16 10:37:53;;;;;;;5.50;1.40;;;15.00;90.20;;;;;;5053038;28;20181;-88
2023/05/16 10:40:20;;;;;;;7.22;1.10;;;15.20;93.10;;;;;;5037276;28;20187;-89
2023/05/16 10:43:02;;;;;;;5.22;1.20;;;15.50;92.70;;;;;;5034770;28;20178;-94
2023/05/16 10:45:28;;;;;;;5.07;1.10;;;15.40;90.30;;;;;;5033570;28;20174;-85
2023/05/16 10:47:55;;;;;;;3.60;1.00;;;15.70;91.20;;;;;;5034964;28;20293;-84
2023/05/16 10:50:43;;;;;;;3.45;1.10;;;15.80;88.90;;;;;;5034840;28;20198;-87
2023/05/16 10:53:28;;;;;;;5.15;0.75;;;15.80;89.30;;;;;;5034681;28;20221;-83
2023/05/16 10:56:00;;;;;;;4.15;1.20;;;15.80;88.30;;;;;;5034945;28;20159;-86
2023/05/16 10:58:38;;;;;;;8.75;1.23;;;15.80;88.90;;;;;;5035064;28;20170;-90
2023/05/16 11:01:26;;;;;;;5.28;1.17;;;15.50;87.80;;;;;;5033553;28;20171;-87
2023/05/16 11:03:57;;;;;;;6.63;1.20;;;14.90;85.60;;;;;;5034576;28;20171;-85
2023/05/16 11:06:27;;;;;;;5.35;1.10;;;14.80;91.80;;;;;;5034474;28;20171;-87
2023/05/16 11:09:05;;;;;;;3.50;1.10;;;15.00;92.40;;;;;;5034765;28;20174;-87
2023/05/16 11:11:52;;;;;;;6.28;1.00;;;15.40;92.70;;;;;;5033722;28;20668;-83
2023/05/16 11:14:28;;;;;;;11.57;1.65;;;15.60;90.60;;;;;;5034685;28;20209;-82
2023/05/16 11:17:11;;;;;;;4.90;1.05;;;15.70;87.00;;;;;;5035113;28;20170;-86
2023/05/16 11:19:58;;;;;;;6.38;1.13;;;15.60;90.60;;;;;;5034111;28;20672;-82
2023/05/16 11:22:33;;;;;;;4.43;1.27;;;16.10;90.90;;;;;;5032008;28;20174;-84
2023/05/16 11:25:02;;;;;;;8.23;1.33;;;16.40;89.50;;;;;;5034523;28;20174;-86
2023/05/16 11:27:29;;;;;;;5.07;1.52;;;16.20;90.00;;;;;;5034301;28;20171;-81
2023/05/16 11:30:10;;;;;;;7.32;1.25;;;16.30;90.40;;;;;;5034218;28;20236;-89
2023/05/16 11:32:40;;;;;;;6.30;1.23;;;16.10;86.50;;;;;;5034396;28;20221;-91
2023/05/16 11:35:13;;;;;;;6.03;1.35;;;16.00;87.80;;;;;;5034309;28;20185;-87
2023/05/16 11:37:39;;;;;;;5.20;1.40;;;16.00;88.90;;;;;;5033734;28;20644;-83
2023/05/16 11:40:10;;;;;;;6.82;1.65;;;15.90;90.30;;;;;;5033103;28;20210;-88
2023/05/16 11:42:40;;;;;;;6.78;1.10;;;15.60;87.90;;;;;;5033968;28;20171;-86
2023/05/16 11:45:15;;;;;;;5.88;1.30;;;15.20;89.10;;;;;;5036876;28;20167;-86
2023/05/16 11:47:43;;;;;;;5.30;1.40;;;15.20;92.40;;;;;;5037871;28;20258;-84
2023/05/16 11:50:16;;;;;;;4.32;1.10;;;15.60;93.00;;;;;;5036502;28;20211;-85
2023/05/16 11:52:45;;;;;;;3.67;0.98;;;16.20;92.20;;;;;;5037300;28;20190;-89
2023/05/16 11:55:11;;;;;;;6.22;1.00;;;16.70;87.10;;;;;;5037304;28;20193;-84
2023/05/16 11:57:43;;;;;;;5.53;1.20;;;16.80;89.70;;;;;;5036112;28;20179;-82
2023/05/16 12:00:17;;;;;;;5.57;1.23;;;16.80;85.90;;;;;;5037448;28;20251;-85
2023/05/16 12:02:46;;;;;;;3.80;1.05;;;16.50;88.40;;;;;;5037625;28;20597;-90
2023/05/16 12:05:13;;;;;;;5.05;1.27;;;16.00;87.90;;;;;;5036210;28;20182;-87
2023/05/16 12:07:39;;;;;;;8.52;1.65;;;15.60;89.60;;;;;;5037686;28;20170;-85
2023/05/16 12:10:10;;;;;;;5.43;1.25;;;15.30;87.40;;;;;;5036942;28;20244;-86
2023/05/16 12:12:39;;;;;;;4.22;0.77;;;15.20;90.20;;;;;;5037243;28;20232;-84
2023/05/16 12:15:06;;;;;;;3.63;1.10;;;15.40;86.50;;;;;;5037248;28;20155;-87
2023/05/16 12:17:37;;;;;;;7.18;1.40;;;15.50;88.40;;;;;;5037041;28;20201;-89
2023/05/16 12:20:10;;;;;;;6.38;0.98;;;15.50;85.40;;;;;;5037099;28;20179;-87
2023/05/16 12:22:39;;;;;;;10.40;1.40;;;15.40;85.10;;;;;;5036902;28;20609;-91
2023/05/16 12:25:27;;;;;;;4.07;1.30;;;15.00;85.90;;;;;;5035616;28;20526;-85
2023/05/16 12:27:55;;;;;;;4.57;0.80;;;14.70;86.90;;;;;;5036233;28;20179;-93
2023/05/16 12:30:23;;;;;;;4.03;0.65;;;14.90;90.60;;;;;;5035705;28;20229;-89
2023/05/16 12:33:09;;;;;;;3.58;0.93;;;15.30;90.00;;;;;;5037039;28;20167;-85
2023/05/16 12:35:40;;;;;;;5.35;1.23;;;15.40;88.20;;;;;;5036753;28;20270;-87
2023/05/16 12:38:08;;;;;;;4.95;1.00;;;15.50;90.70;;;;;;5036885;28;20484;-86
2023/05/16 12:40:38;;;;;;;5.65;0.90;;;15.40;89.40;;;;;;5019103;28;20670;-84
2023/05/16 12:43:25;;;;;;;7.22;1.50;;;15.10;87.00;;;;;;5025340;28;20211;-84
2023/05/16 12:45:56;;;;;;;5.35;1.27;;;15.20;88.60;;;;;;5016849;28;20187;-82
2023/05/16 12:48:23;;;;;;;3.55;1.10;;;15.60;86.00;;;;;;5018921;28;20209;-83
2023/05/16 12:50:49;;;;;;;2.78;0.82;;;16.00;88.50;;;;;;5036268;28;20218;-86
2023/05/16 12:53:17;;;;;;;3.65;0.88;;;16.50;86.60;;;;;;5037302;28;20557;-86